createdAt,value
2022-11-13T00:00:54.480Z,7.77
2022-11-13T00:03:20.751Z,7.77
2022-11-13T00:05:48.404Z,7.78
2022-11-13T00:08:14.701Z,7.74
2022-11-13T00:10:41.009Z,7.75
2022-11-13T00:13:07.284Z,7.75
2022-11-13T00:15:33.564Z,7.76
2022-11-13T00:18:00.689Z,7.73
2022-11-13T00:20:26.955Z,7.74
2022-11-13T00:22:54.562Z,7.70
2022-11-13T00:25:20.849Z,7.67
2022-11-13T00:27:47.115Z,7.67
2022-11-13T00:30:18.908Z,7.63
2022-11-13T00:32:45.678Z,7.63
2022-11-13T00:35:11.976Z,7.61
2022-11-13T00:37:38.258Z,7.57
2022-11-13T00:40:06.694Z,7.54
2022-11-13T00:42:33.001Z,7.53
2022-11-13T00:44:59.267Z,7.51
2022-11-13T00:47:25.563Z,7.49
2022-11-13T00:49:51.882Z,7.48
2022-11-13T00:52:18.158Z,7.46
2022-11-13T00:54:44.464Z,7.44
2022-11-13T00:57:12.072Z,7.41
2022-11-13T00:59:38.362Z,7.38
2022-11-13T01:02:04.684Z,7.36
2022-11-13T01:04:31.053Z,7.35
2022-11-13T01:06:57.365Z,7.32
2022-11-13T01:09:23.765Z,7.30
2022-11-13T01:11:50.023Z,7.28
2022-11-13T01:14:17.681Z,7.26
2022-11-13T01:16:43.971Z,7.24
2022-11-13T01:19:10.274Z,7.21
2022-11-13T01:21:36.555Z,7.19
2022-11-13T01:24:02.966Z,7.16
2022-11-13T01:26:30.341Z,7.13
2022-11-13T01:28:57.495Z,7.12
2022-11-13T01:31:27.898Z,7.12
2022-11-13T01:33:54.588Z,7.10
2022-11-13T01:36:21.718Z,7.08
2022-11-13T01:38:48.193Z,7.05
2022-11-13T01:41:21.854Z,7.05
2022-11-13T01:43:49.822Z,7.03
2022-11-13T01:46:17.591Z,7.03
2022-11-13T01:48:47.273Z,7.03
2022-11-13T01:51:16.418Z,7.01
2022-11-13T01:53:45.241Z,7.01
2022-11-13T01:56:11.776Z,6.97
2022-11-13T01:58:39.419Z,6.93
2022-11-13T02:01:06.338Z,6.91
2022-11-13T02:03:32.722Z,6.89
2022-11-13T02:06:00.444Z,6.88
2022-11-13T02:08:26.974Z,6.85
2022-11-13T02:10:53.652Z,6.83
2022-11-13T02:13:20.947Z,6.76
2022-11-13T02:15:47.651Z,6.69
2022-11-13T02:18:15.148Z,6.64
2022-11-13T02:20:53.231Z,6.62
2022-11-13T02:23:24.625Z,6.63
2022-11-13T02:25:53.310Z,6.59
2022-11-13T02:28:19.702Z,6.60
2022-11-13T02:30:46.030Z,6.60
2022-11-13T02:33:26.323Z,6.58
2022-11-13T02:35:52.923Z,6.57
2022-11-13T02:38:19.417Z,6.58
2022-11-13T02:40:45.678Z,6.60
2022-11-13T02:43:13.313Z,6.60
2022-11-13T02:45:39.576Z,6.57
2022-11-13T02:48:06.499Z,6.56
2022-11-13T02:50:33.246Z,6.56
2022-11-13T02:52:59.611Z,6.56
2022-11-13T02:55:25.910Z,6.53
2022-11-13T02:57:52.174Z,6.52
2022-11-13T03:00:20.079Z,6.51
2022-11-13T03:02:46.443Z,6.51
2022-11-13T03:05:13.858Z,6.51
2022-11-13T03:07:41.026Z,6.49
2022-11-13T03:10:08.028Z,6.48
2022-11-13T03:12:34.541Z,6.49
2022-11-13T03:15:00.852Z,6.49
2022-11-13T03:17:30.563Z,6.48
2022-11-13T03:19:56.868Z,6.47
2022-11-13T03:22:23.149Z,6.45
2022-11-13T03:24:49.426Z,6.43
2022-11-13T03:27:15.695Z,6.43
2022-11-13T03:29:41.987Z,6.40
2022-11-13T03:32:08.268Z,6.38
2022-11-13T03:34:35.918Z,6.36
2022-11-13T03:37:02.261Z,6.37
2022-11-13T03:39:28.705Z,6.34
2022-11-13T03:41:54.985Z,6.35
2022-11-13T03:44:21.296Z,6.33
2022-11-13T03:46:47.592Z,6.34
2022-11-13T03:49:13.884Z,6.34
2022-11-13T03:51:41.635Z,6.34
2022-11-13T03:54:07.898Z,6.34
2022-11-13T03:56:34.274Z,6.36
2022-11-13T03:59:00.550Z,6.36
2022-11-13T04:01:26.950Z,6.38
2022-11-13T04:03:53.418Z,6.37
2022-11-13T04:06:19.730Z,6.38
2022-11-13T04:08:47.371Z,6.38
2022-11-13T04:11:13.648Z,6.39
2022-11-13T04:13:39.945Z,6.38
2022-11-13T04:16:06.432Z,6.37
2022-11-13T04:18:32.807Z,6.35
2022-11-13T04:20:59.445Z,6.36
2022-11-13T04:23:25.722Z,6.34
2022-11-13T04:25:53.420Z,6.33
2022-11-13T04:28:19.700Z,6.30
2022-11-13T04:30:46.008Z,6.26
2022-11-13T04:33:12.314Z,6.24
2022-11-13T04:35:38.581Z,6.20
2022-11-13T04:38:04.880Z,6.19
2022-11-13T04:40:31.185Z,6.19
2022-11-13T04:42:58.859Z,6.17
2022-11-13T04:45:25.163Z,6.14
2022-11-13T04:47:51.450Z,6.11
2022-11-13T04:50:17.849Z,6.10
2022-11-13T04:52:44.167Z,6.09
2022-11-13T04:55:11.095Z,6.04
2022-11-13T04:57:37.577Z,6.03
2022-11-13T05:00:05.832Z,6.01
2022-11-13T05:02:32.113Z,6.01
2022-11-13T05:05:04.388Z,5.99
2022-11-13T05:07:31.397Z,5.99
2022-11-13T05:09:57.697Z,5.97
2022-11-13T05:12:23.978Z,5.95
2022-11-13T05:14:50.302Z,5.93
2022-11-13T05:17:17.921Z,5.87
2022-11-13T05:19:44.224Z,5.82
2022-11-13T05:22:10.503Z,5.76
2022-11-13T05:24:36.798Z,5.69
2022-11-13T05:27:03.141Z,5.62
2022-11-13T05:29:29.421Z,5.58
2022-11-13T05:31:55.738Z,5.55
2022-11-13T05:34:23.455Z,5.54
2022-11-13T05:36:49.737Z,5.51
2022-11-13T05:39:16.080Z,5.49
2022-11-13T05:41:42.340Z,5.49
2022-11-13T05:44:08.697Z,5.44
2022-11-13T05:46:34.979Z,5.41
2022-11-13T05:49:01.769Z,5.42
2022-11-13T05:51:30.462Z,5.44
2022-11-13T05:53:57.154Z,5.45
2022-11-13T05:56:24.417Z,5.46
2022-11-13T05:58:51.297Z,5.48
2022-11-13T06:01:18.902Z,5.46
2022-11-13T06:03:47.650Z,5.43
2022-11-13T06:06:14.743Z,5.43
2022-11-13T06:08:42.699Z,5.41
2022-11-13T06:11:09.811Z,5.42
2022-11-13T06:13:36.277Z,5.40
2022-11-13T06:16:03.544Z,5.35
2022-11-13T06:18:30.529Z,5.32
2022-11-13T06:21:00.744Z,5.32
2022-11-13T06:23:27.032Z,5.32
2022-11-13T06:25:59.293Z,5.33
2022-11-13T06:28:25.722Z,5.33
2022-11-13T06:30:52.235Z,5.36
2022-11-13T06:33:18.527Z,5.37
2022-11-13T06:35:44.837Z,5.40
2022-11-13T06:38:11.106Z,5.42
2022-11-13T06:40:38.010Z,5.40
2022-11-13T06:43:05.642Z,5.36
2022-11-13T06:45:31.894Z,5.28
2022-11-13T06:47:58.179Z,5.16
2022-11-13T06:50:24.450Z,5.06
2022-11-13T06:52:50.745Z,5.05
2022-11-13T06:55:17.018Z,5.02
2022-11-13T06:57:43.288Z,4.96
2022-11-13T07:00:11.928Z,4.95
2022-11-13T07:02:38.191Z,4.97
2022-11-13T07:05:04.756Z,5.02
2022-11-13T07:07:31.055Z,5.06
2022-11-13T07:09:57.354Z,5.06
2022-11-13T07:12:23.663Z,5.12
2022-11-13T07:14:49.936Z,5.20
2022-11-13T07:17:17.548Z,5.22
2022-11-13T07:19:43.828Z,5.21
2022-11-13T07:22:10.089Z,5.19
2022-11-13T07:24:36.385Z,5.18
2022-11-13T07:27:02.673Z,5.10
2022-11-13T07:29:28.957Z,5.09
2022-11-13T07:31:55.261Z,5.08
2022-11-13T07:34:22.892Z,5.08
2022-11-13T07:36:49.177Z,5.08
2022-11-13T07:39:15.474Z,5.08
2022-11-13T07:41:41.742Z,5.11
2022-11-13T07:44:09.460Z,5.13
2022-11-13T07:46:36.260Z,5.16
2022-11-13T07:49:02.585Z,5.20
2022-11-13T07:51:30.280Z,5.21
2022-11-13T07:53:56.692Z,5.25
2022-11-13T07:56:23.349Z,5.32
2022-11-13T07:58:49.809Z,5.38
2022-11-13T08:01:16.191Z,5.49
2022-11-13T08:03:42.536Z,5.57
2022-11-13T08:06:09.045Z,5.66
2022-11-13T08:08:36.706Z,5.78
2022-11-13T08:11:03.585Z,5.90
2022-11-13T08:13:29.864Z,5.96
2022-11-13T08:15:58.404Z,6.03
2022-11-13T08:18:24.792Z,6.13
2022-11-13T08:20:51.194Z,6.26
2022-11-13T08:23:17.462Z,6.42
2022-11-13T08:25:45.055Z,6.60
2022-11-13T08:28:13.233Z,6.79
2022-11-13T08:30:42.546Z,6.96
2022-11-13T08:33:08.844Z,7.12
2022-11-13T08:35:35.166Z,7.29
2022-11-13T08:38:01.897Z,7.45
2022-11-13T08:40:28.201Z,7.58
2022-11-13T08:42:59.289Z,7.74
2022-11-13T08:45:25.650Z,7.90
2022-11-13T08:47:51.943Z,8.05
2022-11-13T08:50:18.243Z,8.20
2022-11-13T08:52:44.562Z,8.33
2022-11-13T08:55:10.851Z,8.47
2022-11-13T08:57:37.179Z,8.56
2022-11-13T09:00:05.364Z,8.65
2022-11-13T09:02:31.656Z,8.73
2022-11-13T09:04:57.959Z,8.84
2022-11-13T09:07:27.377Z,8.90
2022-11-13T09:09:53.850Z,9.03
2022-11-13T09:12:20.146Z,9.12
2022-11-13T09:14:46.448Z,9.20
2022-11-13T09:17:14.109Z,9.28
2022-11-13T09:19:40.443Z,9.37
2022-11-13T09:22:06.796Z,9.47
2022-11-13T09:24:33.122Z,9.55
2022-11-13T09:26:59.403Z,9.65
2022-11-13T09:29:25.718Z,9.76
2022-11-13T09:31:52.031Z,9.85
2022-11-13T09:34:19.666Z,9.97
2022-11-13T09:36:45.930Z,10.13
2022-11-13T09:39:12.287Z,10.29
2022-11-13T09:41:41.418Z,10.46
2022-11-13T09:44:12.858Z,10.56
2022-11-13T09:46:42.369Z,10.69
2022-11-13T09:49:14.089Z,10.82
2022-11-13T09:51:43.561Z,10.88
2022-11-13T09:54:11.703Z,10.99
2022-11-13T09:56:40.187Z,11.11
2022-11-13T09:59:12.607Z,11.26
2022-11-13T10:01:44.752Z,11.35
2022-11-13T10:04:14.459Z,11.51
2022-11-13T10:06:59.889Z,11.63
2022-11-13T10:09:29.836Z,11.74
2022-11-13T10:11:57.837Z,11.83
2022-11-13T10:14:26.857Z,11.93
2022-11-13T10:16:54.820Z,12.00
2022-11-13T10:19:25.276Z,12.11
2022-11-13T10:22:07.605Z,12.17
2022-11-13T10:24:43.559Z,12.27
2022-11-13T10:27:10.607Z,12.38
2022-11-13T10:29:37.340Z,12.50
2022-11-13T10:32:15.392Z,12.59
2022-11-13T10:34:43.123Z,12.69
2022-11-13T10:37:16.994Z,12.78
2022-11-13T10:39:45.095Z,12.81
2022-11-13T10:42:20.724Z,12.87
2022-11-13T10:44:52.268Z,12.88
2022-11-13T10:47:31.226Z,12.98
2022-11-13T10:50:09.929Z,13.00
2022-11-13T10:52:44.039Z,13.02
2022-11-13T10:55:16.154Z,12.97
2022-11-13T10:57:45.848Z,12.98
2022-11-13T11:00:20.573Z,12.94
2022-11-13T11:02:48.787Z,12.89
2022-11-13T11:05:16.772Z,12.83
2022-11-13T11:07:43.106Z,12.80
2022-11-13T11:10:21.686Z,12.77
2022-11-13T11:12:51.786Z,12.74
2022-11-13T11:15:21.787Z,12.69
2022-11-13T11:17:49.830Z,12.65
2022-11-13T11:20:20.646Z,12.62
2022-11-13T11:22:49.226Z,12.56
2022-11-13T11:25:17.676Z,12.53
2022-11-13T11:27:47.353Z,12.54
2022-11-13T11:30:17.360Z,12.55
2022-11-13T11:32:45.171Z,12.56
2022-11-13T11:35:14.509Z,12.56
2022-11-13T11:37:46.532Z,12.58
2022-11-13T11:40:17.241Z,12.60
2022-11-13T11:42:47.775Z,12.65
2022-11-13T11:45:16.020Z,12.74
2022-11-13T11:47:42.729Z,12.80
2022-11-13T11:50:12.208Z,12.90
2022-11-13T11:52:56.983Z,12.98
2022-11-13T11:55:34.375Z,13.09
2022-11-13T11:58:07.365Z,13.23
2022-11-13T12:00:35.893Z,13.38
2022-11-13T12:03:09.789Z,13.49
2022-11-13T12:05:42.334Z,13.60
2022-11-13T12:08:12.661Z,13.71
2022-11-13T12:10:42.880Z,13.72
2022-11-13T12:13:25.161Z,13.77
2022-11-13T12:15:55.564Z,13.82
2022-11-13T12:18:27.805Z,13.87
2022-11-13T12:21:01.042Z,13.96
2022-11-13T12:23:33.844Z,14.04
2022-11-13T12:26:02.615Z,14.05
2022-11-13T12:28:38.397Z,14.10
2022-11-13T12:31:13.996Z,14.08
2022-11-13T12:33:44.671Z,14.08
2022-11-13T12:36:11.752Z,14.09
2022-11-13T12:38:45.590Z,14.07
2022-11-13T12:41:15.547Z,14.08
2022-11-13T12:43:57.273Z,14.04
2022-11-13T12:46:32.526Z,13.98
2022-11-13T12:48:58.824Z,13.88
2022-11-13T12:51:25.119Z,13.83
2022-11-13T12:53:52.399Z,13.82
2022-11-13T12:56:29.984Z,13.80
2022-11-13T12:59:28.699Z,13.74
2022-11-13T13:01:46.818Z,13.68
2022-11-13T13:04:30.458Z,13.61
2022-11-13T13:07:04.915Z,13.53
2022-11-13T13:09:37.400Z,13.50
2022-11-13T13:12:06.793Z,13.48
2022-11-13T13:14:46.429Z,13.43
2022-11-13T13:17:19.693Z,13.44
2022-11-13T13:19:56.499Z,13.48
2022-11-13T13:22:27.003Z,13.52
2022-11-13T13:24:58.869Z,13.54
2022-11-13T13:27:26.401Z,13.55
2022-11-13T13:29:54.143Z,13.54
2022-11-13T13:32:22.995Z,13.55
2022-11-13T13:34:55.324Z,13.55
2022-11-13T13:37:25.437Z,13.55
2022-11-13T13:40:01.745Z,13.53
2022-11-13T13:42:35.780Z,13.54
2022-11-13T13:45:23.721Z,13.54
2022-11-13T13:47:53.189Z,13.52
2022-11-13T13:50:21.142Z,13.51
2022-11-13T13:52:52.653Z,13.52
2022-11-13T13:55:25.376Z,13.49
2022-11-13T13:57:52.065Z,13.47
2022-11-13T14:00:20.455Z,13.49
2022-11-13T14:02:47.772Z,13.50
2022-11-13T14:05:28.104Z,13.51
2022-11-13T14:07:54.532Z,13.52
2022-11-13T14:10:22.016Z,13.49
2022-11-13T14:12:49.212Z,13.51
2022-11-13T14:15:21.102Z,13.48
2022-11-13T14:17:47.368Z,13.47
2022-11-13T14:20:13.850Z,13.44
2022-11-13T14:22:42.038Z,13.41
2022-11-13T14:25:15.063Z,13.39
2022-11-13T14:27:41.456Z,13.39
2022-11-13T14:30:22.487Z,13.43
2022-11-13T14:32:48.779Z,13.45
2022-11-13T14:35:18.430Z,13.44
2022-11-13T14:37:45.654Z,13.44
2022-11-13T14:40:14.863Z,13.42
2022-11-13T14:42:45.306Z,13.39
2022-11-13T14:45:15.930Z,13.35
2022-11-13T14:47:43.824Z,13.34
2022-11-13T14:50:20.353Z,13.31
2022-11-13T14:52:55.552Z,13.30
2022-11-13T14:55:23.219Z,13.25
2022-11-13T14:57:50.053Z,13.22
2022-11-13T15:00:16.687Z,13.19
2022-11-13T15:02:44.437Z,13.15
2022-11-13T15:05:10.776Z,13.16
2022-11-13T15:07:39.660Z,13.34
2022-11-13T15:10:06.256Z,13.62
2022-11-13T15:12:32.562Z,13.66
2022-11-13T15:14:58.829Z,13.53
2022-11-13T15:17:25.130Z,13.37
2022-11-13T15:19:53.737Z,13.24
2022-11-13T15:22:27.185Z,13.11
2022-11-13T15:24:54.159Z,12.99
2022-11-13T15:27:20.444Z,12.89
2022-11-13T15:29:46.739Z,12.78
2022-11-13T15:32:14.541Z,12.65
2022-11-13T15:34:40.989Z,12.53
2022-11-13T15:37:12.614Z,12.44
2022-11-13T15:39:38.937Z,12.35
2022-11-13T15:42:06.991Z,12.29
2022-11-13T15:44:33.264Z,12.22
2022-11-13T15:46:59.550Z,12.16
2022-11-13T15:49:25.879Z,12.08
2022-11-13T15:51:52.252Z,12.01
2022-11-13T15:54:24.642Z,11.91
2022-11-13T15:56:50.978Z,11.81
2022-11-13T15:59:17.276Z,11.73
2022-11-13T16:01:43.656Z,11.67
2022-11-13T16:04:10.131Z,11.58
2022-11-13T16:06:36.681Z,11.47
2022-11-13T16:09:04.232Z,11.36
2022-11-13T16:11:34.552Z,11.24
2022-11-13T16:14:01.136Z,11.13
2022-11-13T16:16:29.760Z,11.00
2022-11-13T16:19:00.228Z,10.90
2022-11-13T16:21:27.080Z,10.83
2022-11-13T16:23:53.388Z,10.78
2022-11-13T16:26:20.646Z,10.74
2022-11-13T16:29:14.339Z,10.68
2022-11-13T16:31:35.429Z,10.60
2022-11-13T16:34:01.782Z,10.51
2022-11-13T16:36:28.115Z,10.45
2022-11-13T16:38:54.416Z,10.42
2022-11-13T16:41:20.709Z,10.38
2022-11-13T16:43:48.334Z,10.34
2022-11-13T16:46:18.354Z,10.29
2022-11-13T16:48:44.657Z,10.24
2022-11-13T16:51:11.000Z,10.15
2022-11-13T16:53:37.298Z,10.07
2022-11-13T16:56:11.188Z,9.97
2022-11-13T16:58:37.485Z,9.90
2022-11-13T17:01:05.980Z,9.81
2022-11-13T17:03:32.463Z,9.71
2022-11-13T17:05:58.812Z,9.64
2022-11-13T17:08:28.007Z,9.60
2022-11-13T17:10:57.500Z,9.61
2022-11-13T17:13:23.851Z,9.59
2022-11-13T17:15:50.152Z,9.60
2022-11-13T17:18:17.763Z,9.56
2022-11-13T17:20:44.119Z,9.52
2022-11-13T17:23:13.360Z,9.47
2022-11-13T17:25:39.660Z,9.47
2022-11-13T17:28:05.973Z,9.50
2022-11-13T17:30:32.372Z,9.54
2022-11-13T17:32:58.670Z,9.57
2022-11-13T17:35:26.334Z,9.57
2022-11-13T17:37:52.632Z,9.61
2022-11-13T17:40:19.398Z,9.61
2022-11-13T17:42:45.699Z,9.65
2022-11-13T17:45:11.979Z,9.67
2022-11-13T17:47:38.288Z,9.68
2022-11-13T17:50:07.651Z,9.68
2022-11-13T17:52:35.415Z,9.64
2022-11-13T17:55:01.701Z,9.63
2022-11-13T17:57:29.545Z,9.58
2022-11-13T17:59:55.835Z,9.52
2022-11-13T18:02:22.133Z,9.44
2022-11-13T18:04:48.438Z,9.36
2022-11-13T18:07:14.828Z,9.30
2022-11-13T18:09:42.574Z,9.23
2022-11-13T18:12:08.858Z,9.12
2022-11-13T18:14:35.125Z,9.03
2022-11-13T18:17:04.274Z,8.92
2022-11-13T18:19:30.573Z,8.84
2022-11-13T18:21:57.286Z,8.76
2022-11-13T18:24:25.362Z,8.66
2022-11-13T18:26:52.974Z,8.57
2022-11-13T18:29:21.738Z,8.54
2022-11-13T18:31:48.074Z,8.53
2022-11-13T18:34:15.864Z,8.52
2022-11-13T18:36:44.804Z,8.54
2022-11-13T18:39:16.774Z,8.56
2022-11-13T18:41:43.450Z,8.59
2022-11-13T18:44:11.085Z,8.62
2022-11-13T18:46:37.397Z,8.64
2022-11-13T18:49:03.821Z,8.63
2022-11-13T18:51:30.144Z,8.65
2022-11-13T18:53:56.863Z,8.68
2022-11-13T18:56:24.046Z,8.64
2022-11-13T18:58:51.405Z,8.57
2022-11-13T19:01:22.676Z,8.53
2022-11-13T19:06:36.496Z,8.42
2022-11-13T19:09:04.442Z,8.38
2022-11-13T19:11:30.934Z,8.33
2022-11-13T19:13:57.618Z,8.26
2022-11-13T19:16:26.068Z,8.16
2022-11-13T19:18:53.140Z,8.04
2022-11-13T19:21:20.307Z,7.95
2022-11-13T19:23:46.606Z,7.89
2022-11-13T19:26:12.931Z,7.87
2022-11-13T19:28:39.504Z,7.78
2022-11-13T19:31:06.401Z,7.82
2022-11-13T19:33:34.248Z,7.85
2022-11-13T19:36:05.019Z,7.83
2022-11-13T19:38:31.486Z,7.74
2022-11-13T19:40:57.998Z,7.66
2022-11-13T19:43:24.719Z,7.58
2022-11-13T19:45:51.032Z,7.52
2022-11-13T19:48:19.141Z,7.41
2022-11-13T19:50:46.749Z,7.30
2022-11-13T19:53:14.140Z,7.23
2022-11-13T19:55:40.452Z,7.21
2022-11-13T19:58:06.751Z,7.23
2022-11-13T20:00:33.023Z,7.22
2022-11-13T20:03:02.561Z,7.24
2022-11-13T20:05:31.351Z,7.24
2022-11-13T20:07:58.971Z,7.21
2022-11-13T20:10:25.248Z,7.19
2022-11-13T20:12:51.533Z,7.18
2022-11-13T20:15:17.819Z,7.16
2022-11-13T20:17:44.090Z,7.22
2022-11-13T20:20:10.659Z,7.28
2022-11-13T20:22:36.941Z,7.36
2022-11-13T20:25:04.916Z,7.41
2022-11-13T20:27:31.196Z,7.43
2022-11-13T20:29:57.487Z,7.45
2022-11-13T20:32:23.793Z,7.46
2022-11-13T20:34:50.113Z,7.47
2022-11-13T20:37:16.392Z,7.47
2022-11-13T20:39:44.747Z,7.47
2022-11-13T20:42:12.378Z,7.47
2022-11-13T20:44:38.707Z,7.51
2022-11-13T20:47:05.061Z,7.53
2022-11-13T20:49:31.344Z,7.54
2022-11-13T20:51:57.640Z,7.55
2022-11-13T20:54:23.945Z,7.59
2022-11-13T20:56:50.234Z,7.61
2022-11-13T20:59:17.874Z,7.62
2022-11-13T21:01:44.229Z,7.62
2022-11-13T21:04:10.548Z,7.62
2022-11-13T21:06:36.859Z,7.63
2022-11-13T21:09:03.131Z,7.64
2022-11-13T21:11:29.428Z,7.61
2022-11-13T21:13:55.714Z,7.52
2022-11-13T21:16:23.882Z,7.36
2022-11-13T21:18:50.162Z,7.24
2022-11-13T21:21:17.689Z,7.18
2022-11-13T21:23:44.061Z,7.08
2022-11-13T21:26:10.435Z,7.01
2022-11-13T21:28:37.083Z,6.92
2022-11-13T21:31:04.583Z,6.85
2022-11-13T21:33:35.097Z,6.76
2022-11-13T21:36:04.864Z,6.67
2022-11-13T21:38:31.391Z,6.57
2022-11-13T21:40:58.414Z,6.55
2022-11-13T21:43:24.775Z,6.45
2022-11-13T21:45:51.087Z,6.32
2022-11-13T21:48:17.485Z,6.24
2022-11-13T21:50:45.128Z,6.14
2022-11-13T21:53:11.884Z,6.07
2022-11-13T21:55:38.171Z,6.01
2022-11-13T21:58:04.449Z,5.95
2022-11-13T22:00:30.723Z,5.89
2022-11-13T22:02:56.988Z,5.83
2022-11-13T22:05:23.264Z,5.74
2022-11-13T22:07:50.890Z,5.74
2022-11-13T22:10:17.231Z,5.71
2022-11-13T22:12:43.506Z,5.71
2022-11-13T22:15:10.621Z,5.70
2022-11-13T22:17:36.889Z,5.70
2022-11-13T22:20:03.431Z,5.65
2022-11-13T22:22:29.781Z,5.65
2022-11-13T22:24:57.388Z,5.65
2022-11-13T22:27:23.668Z,5.64
2022-11-13T22:29:49.960Z,5.63
2022-11-13T22:32:16.241Z,5.58
2022-11-13T22:34:42.533Z,5.60
2022-11-13T22:37:08.799Z,5.62
2022-11-13T22:39:35.138Z,5.64
2022-11-13T22:42:02.775Z,5.65
2022-11-13T22:44:51.240Z,5.64
2022-11-13T22:47:15.289Z,5.63
2022-11-13T22:49:41.581Z,5.69
2022-11-13T22:52:07.842Z,5.77
2022-11-13T22:54:34.135Z,5.83
2022-11-13T22:57:00.402Z,5.89
2022-11-13T22:59:28.016Z,5.93
2022-11-13T23:01:54.308Z,5.95
2022-11-13T23:04:20.589Z,5.99
2022-11-13T23:06:46.949Z,6.01
2022-11-13T23:09:13.245Z,6.01
2022-11-13T23:11:40.168Z,6.02
2022-11-13T23:14:08.092Z,6.01
2022-11-13T23:16:35.859Z,6.02
2022-11-13T23:19:02.542Z,6.02
2022-11-13T23:21:29.537Z,6.00
2022-11-13T23:23:56.319Z,6.02
2022-11-13T23:26:22.875Z,6.05
2022-11-13T23:28:49.183Z,6.06
2022-11-13T23:31:15.802Z,6.07
2022-11-13T23:33:43.703Z,6.07
2022-11-13T23:36:10.854Z,6.08
2022-11-13T23:38:37.150Z,6.09
2022-11-13T23:41:03.849Z,6.10
2022-11-13T23:43:54.336Z,6.08
2022-11-13T23:46:16.714Z,6.06
2022-11-13T23:48:44.322Z,6.02
2022-11-13T23:51:10.634Z,6.03
2022-11-13T23:53:36.990Z,6.01
2022-11-13T23:56:03.299Z,5.97
2022-11-13T23:58:31.100Z,5.94
